Time;durP1;ratioP1;P1;durP2;ratioP2;P2;SDS_P1;SDS_P2;PMS_P1;PMS_P2;Temp;Humidity;BMP_temperature;BMP_pressure;BME280_temperature;BME280_humidity;BME280_pressure;Samples;Min_cycle;Max_cycle;Signal;HPM_P1;HPM_P2
2022/09/28 00:00:05;;;;;;;2.30;1.10;;;;;;;6.85;100.00;93885.94;4949353;29;20203;-85
2022/09/28 00:02:31;;;;;;;2.50;0.90;;;;;;;6.78;100.00;93872.06;4920497;29;20228;-83
2022/09/28 00:04:56;;;;;;;1.00;0.70;;;;;;;6.81;100.00;93867.41;4959546;28;20284;-84
2022/09/28 00:07:22;;;;;;;0.87;0.87;;;;;;;6.80;100.00;93862.38;4960454;28;20201;-84
2022/09/28 00:09:47;;;;;;;0.90;0.90;;;;;;;6.84;100.00;93858.50;4943154;29;20217;-84
2022/09/28 00:12:12;;;;;;;1.07;1.00;;;;;;;6.72;100.00;93847.75;4943467;28;20186;-83
2022/09/28 00:14:39;;;;;;;0.90;0.90;;;;;;;6.73;100.00;93848.56;4934584;29;20200;-84
2022/09/28 00:17:05;;;;;;;1.47;0.80;;;;;;;6.74;100.00;93850.16;4933011;29;20209;-84
2022/09/28 00:19:30;;;;;;;1.77;1.00;;;;;;;6.77;100.00;93849.81;4943659;29;20196;-84
2022/09/28 00:21:55;;;;;;;0.90;0.80;;;;;;;6.76;100.00;93845.63;4945292;29;20197;-83
2022/09/28 00:24:21;;;;;;;3.67;1.20;;;;;;;6.83;100.00;93844.00;4960597;28;20189;-84
2022/09/28 00:26:47;;;;;;;2.53;0.90;;;;;;;6.85;100.00;93841.25;4935758;29;20547;-84
2022/09/28 00:29:25;;;;;;;3.60;0.97;;;;;;;6.80;100.00;93837.41;4932277;29;20682;-84
2022/09/28 00:32:01;;;;;;;1.53;0.80;;;;;;;6.68;100.00;93825.03;4960634;28;20189;-84
2022/09/28 00:34:27;;;;;;;1.03;0.90;;;;;;;6.87;100.00;93827.22;4950546;29;20670;-83
2022/09/28 00:36:52;;;;;;;1.00;0.80;;;;;;;6.90;100.00;93819.16;4951375;29;20288;-84
2022/09/28 00:39:17;;;;;;;1.40;0.60;;;;;;;6.87;100.00;93809.16;4957797;28;20559;-84
2022/09/28 00:41:43;;;;;;;1.20;0.80;;;;;;;6.91;100.00;93804.47;4960331;28;20200;-84
2022/09/28 00:44:21;;;;;;;1.03;0.80;;;;;;;7.13;100.00;93785.66;4925819;29;20221;-83
2022/09/28 00:46:46;;;;;;;1.20;0.80;;;;;;;7.03;100.00;93793.59;4943693;29;20729;-82
2022/09/28 00:49:14;;;;;;;2.20;0.80;;;;;;;7.07;100.00;93789.72;4952810;29;20217;-83
2022/09/28 00:51:41;;;;;;;1.73;0.70;;;;;;;7.06;100.00;93789.88;4948867;29;20196;-83
2022/09/28 00:54:07;;;;;;;1.17;1.07;;;;;;;7.03;100.00;93777.31;4951629;29;20697;-83
2022/09/28 00:56:34;;;;;;;1.90;0.97;;;;;;;6.93;100.00;93777.53;4930871;29;20210;-82
2022/09/28 00:59:00;;;;;;;3.67;0.73;;;;;;;6.95;100.00;93767.84;4934366;29;20185;-84
2022/09/28 01:01:26;;;;;;;0.77;0.77;;;;;;;6.97;100.00;93758.13;4946971;29;20196;-82
2022/09/28 01:03:52;;;;;;;0.93;0.80;;;;;;;6.99;100.00;93751.06;4966168;28;20185;-82
2022/09/28 01:06:22;;;;;;;1.23;0.90;;;;;;;6.90;100.00;93746.91;4944772;29;20208;-82
2022/09/28 01:08:50;;;;;;;0.97;0.80;;;;;;;6.92;100.00;93739.00;4926781;29;20217;-83
2022/09/28 01:11:16;;;;;;;0.80;0.80;;;;;;;6.97;100.00;93727.16;4951906;29;20204;-83
2022/09/28 01:13:42;;;;;;;1.07;0.77;;;;;;;7.04;100.00;93728.09;4943510;29;20204;-83
2022/09/28 01:16:29;;;;;;;1.10;1.00;;;;;;;7.00;100.00;93721.69;4933806;29;20221;-82
2022/09/28 01:19:39;;;;;;;2.47;1.10;;;;;;;7.00;100.00;93708.78;4957729;28;20267;-84
2022/09/28 01:22:11;;;;;;;1.73;1.00;;;;;;;6.95;100.00;93712.84;4955440;28;20197;-83
2022/09/28 01:25:06;;;;;;;1.23;1.13;;;;;;;7.00;100.00;93710.56;4934881;29;20193;-82
2022/09/28 01:27:35;;;;;;;1.10;1.00;;;;;;;7.02;100.00;93704.25;4944005;29;20221;-82
2022/09/28 01:30:10;;;;;;;0.80;0.80;;;;;;;7.11;100.00;93702.41;4947977;28;20205;-83
2022/09/28 01:32:48;;;;;;;1.20;1.00;;;;;;;7.08;100.00;93697.63;4923033;29;20236;-83
2022/09/28 01:35:17;;;;;;;0.90;0.90;;;;;;;7.10;100.00;93690.50;4937186;29;20196;-82
2022/09/28 01:37:51;;;;;;;1.10;0.80;;;;;;;6.95;100.00;93695.56;4951831;29;20213;-82
2022/09/28 01:40:17;;;;;;;1.33;0.90;;;;;;;7.02;100.00;93686.19;4950800;29;20192;-83
2022/09/28 01:42:44;;;;;;;1.47;1.20;;;;;;;6.99;100.00;93676.22;4937467;29;20185;-83
2022/09/28 01:45:15;;;;;;;1.30;1.20;;;;;;;7.04;100.00;93673.91;4922615;29;20693;-82
2022/09/28 01:47:42;;;;;;;2.03;0.97;;;;;;;7.10;100.00;93675.81;4933554;29;20422;-82
2022/09/28 01:50:11;;;;;;;2.87;0.87;;;;;;;7.04;100.00;93673.91;4948059;29;20209;-83
2022/09/28 01:52:52;;;;;;;1.13;1.03;;;;;;;7.03;100.00;93669.72;4949544;28;20177;-82
2022/09/28 01:55:33;;;;;;;0.87;0.87;;;;;;;7.15;100.00;93664.16;4953989;29;20189;-82
2022/09/28 01:58:11;;;;;;;1.70;1.00;;;;;;;7.19;100.00;93662.84;4948020;29;20212;-82
2022/09/28 02:00:40;;;;;;;1.63;0.83;;;;;;;7.13;100.00;93655.78;4937858;29;20193;-83
2022/09/28 02:03:11;;;;;;;1.70;1.60;;;;;;;7.25;100.00;93654.41;4946879;29;20200;-83
2022/09/28 02:05:39;;;;;;;1.73;0.90;;;;;;;7.17;100.00;93647.53;4928473;29;20856;-83
2022/09/28 02:08:43;;;;;;;1.30;1.10;;;;;;;7.24;100.00;93645.03;4937663;29;20181;-82
2022/09/28 02:11:13;;;;;;;1.07;0.90;;;;;;;7.23;100.00;93643.44;4949481;29;20302;-83
2022/09/28 02:13:46;;;;;;;1.43;1.10;;;;;;;7.31;100.00;93638.22;4957739;28;20193;-83
2022/09/28 02:16:25;;;;;;;1.70;1.07;;;;;;;7.25;100.00;93637.16;4934938;29;20601;-83
2022/09/28 02:18:50;;;;;;;1.30;1.20;;;;;;;7.29;100.00;93635.00;4951520;29;20681;-83
2022/09/28 02:21:21;;;;;;;1.50;0.90;;;;;;;7.39;100.00;93640.72;4942346;29;20218;-82
2022/09/28 02:23:57;;;;;;;1.30;1.00;;;;;;;7.37;100.00;93635.75;4947002;29;20196;-82
2022/09/28 02:26:28;;;;;;;1.33;0.90;;;;;;;7.41;100.00;93636.19;4925319;29;20201;-83
2022/09/28 02:28:53;;;;;;;1.27;1.10;;;;;;;7.37;100.00;93632.38;4948442;29;20193;-82
2022/09/28 02:31:18;;;;;;;1.73;0.90;;;;;;;7.38;100.00;93631.38;4948819;29;20190;-82
2022/09/28 02:33:45;;;;;;;1.67;1.20;;;;;;;7.48;100.00;93631.94;4962137;28;20660;-82
2022/09/28 02:36:10;;;;;;;3.60;0.97;;;;;;;7.47;100.00;93622.59;4931412;29;20225;-82
2022/09/28 02:38:36;;;;;;;1.20;1.10;;;;;;;7.43;100.00;93615.38;4908320;29;20579;-84
2022/09/28 02:41:15;;;;;;;1.37;0.80;;;;;;;7.49;100.00;93623.19;4928456;29;20666;-83
2022/09/28 02:44:11;;;;;;;1.53;1.10;;;;;;;7.48;100.00;93613.06;4930869;29;20217;-82
2022/09/28 02:46:51;;;;;;;3.73;1.20;;;;;;;7.37;100.00;93619.44;4968072;28;20757;-83
2022/09/28 02:49:25;;;;;;;0.80;0.80;;;;;;;7.47;100.00;93614.03;4952928;29;20645;-82
2022/09/28 02:52:14;;;;;;;3.13;1.20;;;;;;;7.44;100.00;93620.34;4937371;29;20730;-82
2022/09/28 02:54:56;;;;;;;2.73;1.00;;;;;;;7.52;100.00;93611.75;4958794;28;20189;-83
2022/09/28 02:57:59;;;;;;;2.70;1.00;;;;;;;7.49;100.00;93605.13;4950329;29;20217;-83
2022/09/28 03:00:24;;;;;;;0.80;0.80;;;;;;;7.50;100.00;93603.34;4963491;28;20193;-82
2022/09/28 03:03:12;;;;;;;2.07;0.80;;;;;;;7.58;100.00;93608.44;4948117;28;20260;-83
2022/09/28 03:05:40;;;;;;;0.77;0.63;;;;;;;7.53;100.00;93597.84;4931112;29;20193;-82
2022/09/28 03:08:11;;;;;;;1.40;0.70;;;;;;;7.66;100.00;93609.16;4946869;29;20197;-83
2022/09/28 03:10:40;;;;;;;2.93;0.90;;;;;;;7.71;100.00;93646.59;4915595;29;20218;-82
2022/09/28 03:13:06;;;;;;;1.70;0.90;;;;;;;7.75;100.00;93658.97;4948244;29;20206;-82
2022/09/28 03:15:33;;;;;;;3.63;0.87;;;;;;;7.75;100.00;93658.16;4950150;29;20191;-82
2022/09/28 03:17:58;;;;;;;3.90;0.93;;;;;;;7.66;100.00;93647.91;4944416;29;20691;-83
2022/09/28 03:20:25;;;;;;;1.60;0.77;;;;;;;7.55;100.00;93650.91;4946912;29;20269;-82
2022/09/28 03:22:51;;;;;;;2.00;0.80;;;;;;;7.55;100.00;93650.13;4934267;29;20189;-82
2022/09/28 03:25:16;;;;;;;3.37;0.70;;;;;;;7.50;100.00;93647.25;4920238;29;20571;-83
2022/09/28 03:27:41;;;;;;;2.93;0.90;;;;;;;7.53;100.00;93650.31;4930567;29;20252;-83
2022/09/28 03:30:08;;;;;;;1.80;0.80;;;;;;;7.49;100.00;93648.22;4961692;28;20261;-83
2022/09/28 03:32:33;;;;;;;0.80;0.77;;;;;;;7.52;100.00;93653.88;4959134;28;20197;-82
2022/09/28 03:34:58;;;;;;;3.13;0.90;;;;;;;7.49;100.00;93649.03;4935773;29;20247;-83
2022/09/28 03:37:25;;;;;;;2.30;0.70;;;;;;;7.47;100.00;93648.41;4965195;28;20205;-83
2022/09/28 03:39:50;;;;;;;2.20;0.70;;;;;;;7.39;100.00;93649.28;4927319;29;20189;-83
2022/09/28 03:42:16;;;;;;;2.37;0.80;;;;;;;7.48;100.00;93652.59;4968344;28;20191;-84
2022/09/28 03:44:41;;;;;;;0.70;0.70;;;;;;;7.44;100.00;93655.72;4935706;29;20674;-83
2022/09/28 03:47:07;;;;;;;1.63;0.70;;;;;;;7.37;100.00;93648.66;4946191;29;20200;-84
2022/09/28 03:49:33;;;;;;;1.23;0.70;;;;;;;7.39;100.00;93651.84;4941928;29;20245;-82
2022/09/28 03:51:58;;;;;;;0.60;0.57;;;;;;;7.40;100.00;93650.06;4967501;28;20224;-83
2022/09/28 03:54:23;;;;;;;2.40;1.10;;;;;;;7.45;100.00;93637.47;4959685;28;20197;-82
2022/09/28 03:56:49;;;;;;;3.03;0.70;;;;;;;7.36;100.00;93649.63;4962073;28;20209;-82
2022/09/28 03:59:15;;;;;;;2.00;0.70;;;;;;;7.36;100.00;93630.75;4950142;29;20232;-82
2022/09/28 04:01:40;;;;;;;2.03;0.90;;;;;;;7.41;100.00;93638.78;4932879;29;20198;-82
2022/09/28 04:04:06;;;;;;;1.70;1.03;;;;;;;7.38;100.00;93629.59;4956992;28;20203;-83
2022/09/28 04:06:31;;;;;;;1.83;0.80;;;;;;;7.36;100.00;93634.13;4931227;29;20578;-83
2022/09/28 04:08:56;;;;;;;1.70;0.80;;;;;;;7.20;100.00;93629.09;4952063;29;20193;-82
2022/09/28 04:11:23;;;;;;;0.80;0.70;;;;;;;7.31;100.00;93631.25;4962045;28;20216;-83
2022/09/28 04:13:51;;;;;;;2.03;0.73;;;;;;;7.33;100.00;93634.50;4960829;28;20277;-83
2022/09/28 04:16:17;;;;;;;2.20;0.70;;;;;;;7.33;100.00;93623.34;4933364;29;20698;-83
2022/09/28 04:18:42;;;;;;;0.70;0.70;;;;;;;7.35;100.00;93639.50;4944891;29;20198;-83
2022/09/28 04:21:10;;;;;;;1.17;0.87;;;;;;;7.36;100.00;93630.75;4922566;29;20660;-82
2022/09/28 04:23:37;;;;;;;1.60;0.67;;;;;;;7.32;100.00;93638.03;4947803;29;20575;-83
2022/09/28 04:26:05;;;;;;;3.50;0.80;;;;;;;7.31;100.00;93640.78;4947348;29;20216;-82
2022/09/28 04:31:17;;;;;;;2.30;1.00;;;;;;;7.38;100.00;93647.69;4931928;29;20189;-82
2022/09/28 04:33:42;;;;;;;3.57;1.00;;;;;;;7.41;100.00;93636.19;4919458;29;20673;-84
2022/09/28 04:36:09;;;;;;;2.37;1.10;;;;;;;7.39;100.00;93640.72;4933119;29;20205;-83
2022/09/28 04:38:35;;;;;;;1.50;0.90;;;;;;;7.36;100.00;93638.50;4944542;29;20197;-82
2022/09/28 04:41:00;;;;;;;1.40;0.90;;;;;;;7.34;100.00;93635.31;4924059;29;20557;-82
2022/09/28 04:43:26;;;;;;;4.20;1.20;;;;;;;7.38;100.00;93636.53;4948815;29;20667;-82
2022/09/28 04:45:51;;;;;;;2.60;1.10;;;;;;;7.37;100.00;93632.38;4933167;29;20196;-84
2022/09/28 04:48:17;;;;;;;1.90;1.20;;;;;;;7.34;100.00;93630.94;4960723;28;20267;-83
2022/09/28 04:50:42;;;;;;;1.43;1.20;;;;;;;7.32;100.00;93635.44;4959151;28;20214;-82
2022/09/28 04:53:07;;;;;;;1.83;1.00;;;;;;;7.28;100.00;93638.56;4916508;29;20201;-82
2022/09/28 04:55:32;;;;;;;2.47;1.50;;;;;;;7.36;100.00;93641.88;4944661;29;20190;-82
2022/09/28 04:58:01;;;;;;;2.17;1.10;;;;;;;7.39;100.00;93638.16;4944055;28;20686;-82
2022/09/28 05:00:34;;;;;;;3.20;1.30;;;;;;;7.31;100.00;93643.38;4962669;28;20182;-83
2022/09/28 05:03:00;;;;;;;2.83;1.40;;;;;;;7.37;100.00;93650.44;4932138;29;20246;-83
2022/09/28 05:05:25;;;;;;;2.53;1.30;;;;;;;7.42;100.00;93650.72;4937680;29;20193;-82
2022/09/28 05:07:50;;;;;;;2.27;1.30;;;;;;;7.46;100.00;93648.59;4947740;29;20217;-83
2022/09/28 05:10:18;;;;;;;2.53;1.30;;;;;;;7.40;100.00;93644.91;4946913;29;20221;-82
2022/09/28 05:12:44;;;;;;;4.83;1.43;;;;;;;7.43;100.00;93642.00;4965339;28;20189;-82
2022/09/28 05:15:09;;;;;;;3.00;1.30;;;;;;;7.46;100.00;93643.41;4930183;29;20258;-83
2022/09/28 05:17:34;;;;;;;2.03;1.20;;;;;;;7.44;100.00;93637.63;4942505;29;20205;-82
2022/09/28 05:20:01;;;;;;;2.70;1.63;;;;;;;7.41;100.00;93633.59;4953980;29;20181;-82
2022/09/28 05:22:26;;;;;;;4.03;1.63;;;;;;;7.48;100.00;93637.09;4936062;29;20200;-83
2022/09/28 05:24:53;;;;;;;4.27;2.20;;;;;;;7.47;100.00;93645.03;4931559;29;20540;-82
2022/09/28 05:27:19;;;;;;;3.67;1.50;;;;;;;7.48;100.00;93650.00;4916455;29;20292;-83
2022/09/28 05:29:44;;;;;;;5.20;2.07;;;;;;;7.49;100.00;93659.34;4933940;29;20359;-81
2022/09/28 05:32:09;;;;;;;2.33;1.80;;;;;;;7.44;100.00;93661.69;4943546;29;20189;-83
2022/09/28 05:34:34;;;;;;;6.77;2.63;;;;;;;7.38;100.00;93659.78;4962369;28;20193;-83
2022/09/28 05:37:00;;;;;;;5.67;2.20;;;;;;;7.49;100.00;93659.34;4964109;28;20759;-84
2022/09/28 05:39:25;;;;;;;8.50;2.43;;;;;;;7.43;100.00;93662.66;4936520;29;20223;-83
2022/09/28 05:41:50;;;;;;;7.03;2.53;;;;;;;7.49;100.00;93668.88;4917460;29;20542;-83
2022/09/28 05:44:16;;;;;;;6.43;2.50;;;;;;;7.52;100.00;93669.38;4962609;28;20325;-83
2022/09/28 05:46:41;;;;;;;5.77;2.40;;;;;;;7.50;100.00;93670.50;4953340;29;20232;-84
2022/09/28 05:49:06;;;;;;;3.17;2.50;;;;;;;7.54;100.00;93661.44;4949810;29;20209;-84
2022/09/28 05:51:32;;;;;;;8.10;3.20;;;;;;;7.57;100.00;93666.25;4935539;29;20181;-84
2022/09/28 05:53:57;;;;;;;5.97;2.90;;;;;;;7.59;100.00;93659.91;4952543;29;20216;-83
2022/09/28 05:56:22;;;;;;;6.30;3.10;;;;;;;7.56;100.00;93660.28;4943522;29;20587;-84
2022/09/28 05:58:48;;;;;;;7.40;2.87;;;;;;;7.60;100.00;93666.72;4948652;29;20194;-83
2022/09/28 06:01:13;;;;;;;6.27;3.03;;;;;;;7.63;100.00;93668.13;4945749;29;20185;-82
2022/09/28 06:03:38;;;;;;;6.73;2.80;;;;;;;7.54;100.00;93671.75;4953618;29;20225;-84
2022/09/28 06:06:04;;;;;;;5.10;3.00;;;;;;;7.57;100.00;93668.81;4945203;29;20217;-84
2022/09/28 06:08:32;;;;;;;5.63;2.67;;;;;;;7.59;100.00;93666.88;4937465;28;20234;-83
2022/09/28 06:11:00;;;;;;;6.53;2.60;;;;;;;7.60;100.00;93665.91;4936722;29;20245;-84
2022/09/28 06:13:26;;;;;;;5.30;2.53;;;;;;;7.61;100.00;93670.91;4913192;29;20730;-83
2022/09/28 06:15:51;;;;;;;8.47;2.73;;;;;;;7.55;100.00;93668.19;4959645;28;20693;-83
2022/09/28 06:18:17;;;;;;;7.63;2.30;;;;;;;7.43;100.00;93675.56;4957560;28;20194;-84
2022/09/28 06:20:42;;;;;;;4.87;2.47;;;;;;;7.49;100.00;93685.19;4937916;29;20196;-84
2022/09/28 06:23:09;;;;;;;7.80;3.33;;;;;;;7.48;100.00;93683.59;4930076;29;20240;-82
2022/09/28 06:25:34;;;;;;;5.90;2.77;;;;;;;7.44;100.00;93684.94;4946338;29;20185;-82
2022/09/28 06:28:04;;;;;;;3.60;2.10;;;;;;;7.49;100.00;93692.94;4929813;29;20210;-85
2022/09/28 06:30:32;;;;;;;6.33;2.87;;;;;;;7.53;100.00;93694.22;4930798;29;20209;-84
2022/09/28 06:32:58;;;;;;;5.53;1.90;;;;;;;7.49;100.00;93699.88;4927559;29;20193;-84
2022/09/28 06:35:25;;;;;;;2.87;1.87;;;;;;;7.53;100.00;93706.31;4933820;29;20193;-83
2022/09/28 06:37:51;;;;;;;4.23;1.90;;;;;;;7.49;100.00;93707.63;4932635;29;20268;-84
2022/09/28 06:40:17;;;;;;;5.60;1.83;;;;;;;7.34;100.00;93717.94;4952235;29;20594;-84
2022/09/28 06:42:42;;;;;;;7.07;2.40;;;;;;;7.34;100.00;93707.59;4946328;29;20236;-81
2022/09/28 06:45:09;;;;;;;2.50;1.60;;;;;;;7.41;100.00;93716.25;4950461;29;20233;-87
2022/09/28 06:47:35;;;;;;;6.70;2.40;;;;;;;7.39;100.00;93716.41;4937385;29;20618;-83
2022/09/28 06:50:00;;;;;;;4.70;2.60;;;;;;;7.47;100.00;93728.47;4948727;29;20210;-84
2022/09/28 06:52:25;;;;;;;5.43;2.00;;;;;;;7.45;100.00;93725.25;4924015;29;20189;-85
2022/09/28 06:54:51;;;;;;;4.03;2.20;;;;;;;7.50;100.00;93728.13;4952107;28;20714;-84
2022/09/28 06:57:17;;;;;;;1.80;1.67;;;;;;;7.75;100.00;93735.69;4951500;29;20220;-84
2022/09/28 06:59:44;;;;;;;1.80;1.37;;;;;;;7.81;100.00;93730.63;4952286;29;20668;-84
2022/09/28 07:02:13;;;;;;;1.63;1.53;;;;;;;7.88;100.00;93728.94;4949737;29;20181;-84
2022/09/28 07:04:42;;;;;;;1.67;1.50;;;;;;;8.01;100.00;93725.75;4920791;29;20681;-84
2022/09/28 07:07:10;;;;;;;2.73;1.57;;;;;;;7.95;100.00;93735.03;4947005;29;20210;-85
2022/09/28 07:09:36;;;;;;;3.10;2.00;;;;;;;8.07;100.00;93729.44;4931748;29;20202;-84
2022/09/28 07:12:03;;;;;;;6.63;4.80;;;;;;;8.06;100.00;93740.75;4970814;28;20259;-83
2022/09/28 07:14:30;;;;;;;7.97;6.90;;;;;;;8.11;100.00;93744.41;4937166;29;20185;-84
2022/09/28 07:16:55;;;;;;;14.27;9.27;;;;;;;8.26;100.00;93751.38;4953827;29;20201;-84
2022/09/28 07:19:20;;;;;;;2.40;2.20;;;;;;;8.14;100.00;93741.47;4951460;28;20197;-83
2022/09/28 07:21:46;;;;;;;2.20;2.00;;;;;;;8.10;100.00;93752.31;4948768;28;20181;-82
2022/09/28 07:24:13;;;;;;;2.47;2.20;;;;;;;8.14;100.00;93757.00;4950532;29;20335;-84
2022/09/28 07:26:38;;;;;;;4.40;2.60;;;;;;;8.00;100.00;93765.50;4949252;29;20213;-83
2022/09/28 07:29:07;;;;;;;3.10;2.00;;;;;;;8.03;100.00;93769.50;4953751;29;20236;-84
2022/09/28 07:31:33;;;;;;;3.67;2.03;;;;;;;8.17;100.00;93777.31;4949564;28;20194;-83
2022/09/28 07:33:58;;;;;;;3.20;1.90;;;;;;;8.20;100.00;93784.69;4919076;29;20200;-82
2022/09/28 07:36:24;;;;;;;3.10;1.93;;;;;;;8.34;100.00;93787.50;4920875;29;20209;-83
2022/09/28 07:38:49;;;;;;;5.13;2.40;;;;;;;8.31;100.00;93793.84;4920731;29;20225;-84
2022/09/28 07:41:20;;;;;;;4.83;2.33;;;;;;;8.42;100.00;93800.38;4945984;29;20212;-84
2022/09/28 07:43:45;;;;;;;2.80;1.93;;;;;;;8.47;97.89;93798.06;4936064;29;20194;-83
2022/09/28 07:46:11;;;;;;;4.63;2.03;;;;;;;8.58;98.16;93795.06;4932307;29;20235;-82
2022/09/28 07:48:38;;;;;;;5.97;2.50;;;;;;;8.64;97.33;93801.28;4951997;28;20189;-82
2022/09/28 07:51:04;;;;;;;6.47;3.07;;;;;;;8.76;96.04;93802.47;4919978;29;20685;-83
2022/09/28 07:53:30;;;;;;;2.80;2.10;;;;;;;8.75;95.98;93803.44;4951087;29;20186;-84
2022/09/28 07:56:02;;;;;;;3.53;2.20;;;;;;;8.93;96.59;93810.84;4959492;28;20236;-84
2022/09/28 07:58:28;;;;;;;3.97;2.10;;;;;;;8.94;95.63;93817.63;4937870;29;20602;-86
2022/09/28 08:00:53;;;;;;;3.53;2.03;;;;;;;8.94;95.05;93815.03;4952731;28;20181;-84
2022/09/28 08:03:21;;;;;;;4.57;3.30;;;;;;;9.08;94.56;93816.78;4965962;28;20185;-84
2022/09/28 08:05:46;;;;;;;5.97;3.27;;;;;;;9.04;94.43;93825.91;4936646;29;20549;-84
2022/09/28 08:08:12;;;;;;;3.77;2.13;;;;;;;8.97;94.95;93819.84;4967705;28;20196;-83
2022/09/28 08:10:38;;;;;;;6.07;2.83;;;;;;;9.16;95.07;93826.25;4931561;29;20304;-85
2022/09/28 08:13:04;;;;;;;6.13;2.40;;;;;;;8.92;95.90;93824.75;4950379;29;20184;-82
2022/09/28 08:15:35;;;;;;;6.23;3.07;;;;;;;8.85;96.74;93823.88;4935762;29;20213;-85
2022/09/28 08:18:01;;;;;;;19.23;9.67;;;;;;;8.72;97.31;93832.25;4935708;29;20783;-84
2022/09/28 08:23:10;;;;;;;6.20;2.97;;;;;;;8.99;96.32;93838.59;4948318;29;20309;-84
2022/09/28 08:25:36;;;;;;;4.93;2.70;;;;;;;9.14;95.94;93848.94;4933322;29;20207;-83
2022/09/28 08:28:02;;;;;;;6.47;2.80;;;;;;;9.21;95.92;93852.44;4950074;29;20235;-84
2022/09/28 08:30:27;;;;;;;9.07;3.57;;;;;;;9.19;96.00;93850.03;4929667;29;20699;-84
2022/09/28 08:32:52;;;;;;;8.93;3.13;;;;;;;9.24;96.51;93857.25;4963994;28;20276;-84
2022/09/28 08:35:18;;;;;;;4.13;3.30;;;;;;;8.99;94.87;93849.75;4940356;29;20193;-84
2022/09/28 08:37:51;;;;;;;6.37;3.10;;;;;;;9.04;95.55;93859.59;4939924;29;20209;-85
2022/09/28 08:40:20;;;;;;;6.13;3.40;;;;;;;9.38;93.68;93853.84;4954366;28;20195;-83
2022/09/28 08:42:47;;;;;;;7.27;3.67;;;;;;;9.51;95.01;93858.34;4954013;29;20189;-83
2022/09/28 08:45:18;;;;;;;5.10;3.77;;;;;;;9.72;93.07;93857.59;4954491;29;20192;-85
2022/09/28 08:51:17;;;;;;;8.00;4.27;;;;;;;9.83;92.90;93865.69;4968943;28;20256;-84
2022/09/28 08:54:06;;;;;;;13.33;4.00;;;;;;;10.30;92.07;93863.56;4923969;29;20185;-85
2022/09/28 08:56:43;;;;;;;8.07;5.90;;;;;;;10.29;90.90;93873.16;4934071;29;20213;-84
2022/09/28 08:59:12;;;;;;;8.67;4.33;;;;;;;10.24;89.09;93865.09;4937263;29;20195;-84
2022/09/28 09:01:43;;;;;;;12.20;6.93;;;;;;;10.21;89.69;93865.47;4939332;29;20185;-83
2022/09/28 09:04:08;;;;;;;7.33;4.90;;;;;;;10.19;87.06;93870.03;4923844;29;20670;-83
2022/09/28 09:07:03;;;;;;;7.17;4.70;;;;;;;10.21;86.37;93868.06;4937106;29;20309;-82
2022/09/28 09:10:07;;;;;;;11.00;6.27;;;;;;;10.32;85.77;93875.34;4940213;29;20216;-83
2022/09/28 09:12:44;;;;;;;10.40;6.73;;;;;;;10.34;86.67;93878.59;4955563;28;20201;-83
2022/09/28 09:15:19;;;;;;;7.33;4.27;;;;;;;10.31;86.09;93878.16;4940753;29;20181;-84
2022/09/28 09:18:21;;;;;;;6.83;4.90;;;;;;;10.54;83.49;93877.94;4922744;29;20750;-84
2022/09/28 09:20:52;;;;;;;11.40;8.10;;;;;;;10.58;83.65;93882.56;4940680;29;20185;-83
2022/09/28 09:23:48;;;;;;;10.33;7.37;;;;;;;10.53;83.25;93889.31;4938868;29;20240;-82
2022/09/28 09:26:17;;;;;;;13.20;10.00;;;;;;;10.65;83.59;93893.00;4930796;29;20245;-83
2022/09/28 09:28:55;;;;;;;6.07;3.67;;;;;;;10.39;83.13;93899.56;4938411;29;20647;-82
2022/09/28 09:31:29;;;;;;;3.40;2.60;;;;;;;10.60;81.74;93900.53;4932295;29;20213;-82
2022/09/28 09:34:06;;;;;;;4.83;3.07;;;;;;;10.50;83.14;93899.06;4930642;29;20603;-83
2022/09/28 09:36:46;;;;;;;6.37;2.83;;;;;;;10.55;82.89;93905.50;4937886;29;20271;-82
2022/09/28 09:39:30;;;;;;;7.97;2.80;;;;;;;10.55;82.29;93910.69;4961083;28;20221;-83
2022/09/28 09:42:15;;;;;;;5.00;2.30;;;;;;;10.53;81.86;93907.50;4964584;28;20686;-83
2022/09/28 09:44:53;;;;;;;5.00;2.33;;;;;;;10.66;82.68;93910.97;4963628;28;20185;-82
2022/09/28 09:47:38;;;;;;;5.90;2.83;;;;;;;10.78;81.67;93919.88;4937582;29;20212;-83
2022/09/28 09:50:15;;;;;;;4.23;2.33;;;;;;;11.05;81.01;93918.28;4937655;29;20233;-83
2022/09/28 09:52:51;;;;;;;5.97;2.77;;;;;;;11.24;80.02;93921.97;4938423;29;20216;-83
2022/09/28 09:55:25;;;;;;;5.07;2.57;;;;;;;11.30;80.44;93928.19;4947472;29;20733;-82
2022/09/28 09:57:54;;;;;;;3.30;2.03;;;;;;;10.91;77.87;93928.75;4945583;29;20212;-82
2022/09/28 10:00:21;;;;;;;5.27;2.30;;;;;;;11.13;77.98;93919.09;4950305;29;20196;-83
2022/09/28 10:02:47;;;;;;;4.07;2.40;;;;;;;11.32;78.66;93927.03;4948545;29;20302;-83
2022/09/28 10:05:12;;;;;;;4.07;2.23;;;;;;;11.45;76.88;93926.28;4965902;28;20190;-82
2022/09/28 10:07:50;;;;;;;4.07;2.63;;;;;;;11.46;77.58;93914.09;4936656;29;20209;-82
2022/09/28 10:10:20;;;;;;;6.53;2.33;;;;;;;11.40;78.39;93930.47;4948969;29;20209;-82
2022/09/28 10:12:47;;;;;;;5.57;2.70;;;;;;;11.54;76.94;93929.53;4922185;29;20197;-82
2022/09/28 10:15:15;;;;;;;7.43;2.70;;;;;;;11.41;76.96;93929.47;4951351;29;20198;-82
2022/09/28 10:17:40;;;;;;;7.90;2.53;;;;;;;10.84;76.72;93917.50;4921261;29;20665;-82
2022/09/28 10:20:11;;;;;;;4.30;2.03;;;;;;;11.27;76.84;93920.78;4935960;29;20217;-83
2022/09/28 10:22:37;;;;;;;5.67;2.63;;;;;;;11.13;77.59;93921.69;4952220;29;20833;-84
2022/09/28 10:25:04;;;;;;;9.17;2.43;;;;;;;11.02;77.32;93923.81;4966064;28;20189;-83
2022/09/28 10:27:33;;;;;;;7.10;4.50;;;;;;;10.96;78.03;93923.81;4966839;28;20241;-84
2022/09/28 10:30:10;;;;;;;4.50;3.13;;;;;;;11.19;77.63;93924.34;4933351;29;20222;-82
2022/09/28 10:32:40;;;;;;;4.73;2.70;;;;;;;11.56;76.20;93932.72;4934376;29;20609;-83
2022/09/28 10:35:22;;;;;;;6.57;2.50;;;;;;;11.67;77.42;93923.59;4949221;29;20201;-83
2022/09/28 10:37:53;;;;;;;4.60;2.10;;;;;;;11.53;76.69;93928.72;4935572;29;20217;-83
2022/09/28 10:40:31;;;;;;;4.13;2.37;;;;;;;11.30;76.12;93925.59;4930114;29;20181;-84
2022/09/28 10:43:06;;;;;;;7.50;2.90;;;;;;;11.09;77.74;93923.88;4936735;29;20190;-83
2022/09/28 10:45:36;;;;;;;5.03;2.00;;;;;;;11.52;73.37;93927.13;4968190;28;20192;-83
2022/09/28 10:48:11;;;;;;;7.47;2.47;;;;;;;11.70;74.18;93928.41;4950680;29;20213;-83
2022/09/28 10:50:38;;;;;;;3.27;1.90;;;;;;;11.72;74.37;93924.63;4949917;29;20243;-84
2022/09/28 10:53:19;;;;;;;2.83;1.83;;;;;;;11.42;74.15;93931.09;4965825;28;20188;-83
2022/09/28 10:56:02;;;;;;;4.30;1.90;;;;;;;11.54;74.02;93940.72;4935167;29;20288;-83
2022/09/28 10:58:39;;;;;;;3.57;2.00;;;;;;;11.76;74.64;93943.25;4961863;28;20197;-84
2022/09/28 11:01:10;;;;;;;3.60;2.10;;;;;;;11.61;74.34;93936.38;4946206;29;20200;-84
2022/09/28 11:03:59;;;;;;;6.30;2.17;;;;;;;11.53;73.14;93933.94;4932309;29;20551;-82
2022/09/28 11:06:30;;;;;;;3.33;1.97;;;;;;;12.04;72.92;93933.56;4950871;29;20224;-84
2022/09/28 11:08:58;;;;;;;4.27;1.80;;;;;;;11.89;72.10;93932.91;4980293;28;20197;-83
2022/09/28 11:11:24;;;;;;;5.70;1.70;;;;;;;11.76;71.61;93933.66;4930880;29;20194;-85
2022/09/28 11:13:52;;;;;;;4.63;2.20;;;;;;;12.15;71.81;93935.59;4921667;29;20189;-85
2022/09/28 11:16:27;;;;;;;5.80;1.87;;;;;;;12.06;72.45;93923.75;4936258;28;20205;-83
2022/09/28 11:18:53;;;;;;;6.40;1.90;;;;;;;11.95;72.05;93931.34;4923133;29;20207;-82
2022/09/28 11:21:22;;;;;;;5.53;1.80;;;;;;;11.98;72.88;93938.75;4932336;29;20668;-82
2022/09/28 11:24:06;;;;;;;3.77;1.90;;;;;;;12.01;71.28;93941.75;4949932;29;20194;-82
2022/09/28 11:26:37;;;;;;;6.97;2.10;;;;;;;11.68;71.16;93938.22;4935399;29;20890;-80
2022/09/28 11:29:03;;;;;;;3.63;1.87;;;;;;;12.01;71.03;93941.75;4948892;28;20617;-81
2022/09/28 11:31:30;;;;;;;6.63;2.03;;;;;;;11.81;71.79;93936.47;4935651;29;20276;-82
2022/09/28 11:34:21;;;;;;;5.43;2.13;;;;;;;12.00;70.33;93934.16;4918502;29;20205;-82
2022/09/28 11:37:08;;;;;;;6.07;2.33;;;;;;;12.09;70.84;93938.19;4931945;29;20232;-82
2022/09/28 11:40:04;;;;;;;4.50;2.13;;;;;;;11.78;70.38;93929.03;4950002;29;20189;-81
2022/09/28 11:42:57;;;;;;;2.27;1.70;;;;;;;11.72;69.35;93934.22;4965166;28;20236;-81
2022/09/28 11:45:28;;;;;;;7.43;2.67;;;;;;;11.49;70.00;93922.31;4936684;29;20196;-83
2022/09/28 11:48:00;;;;;;;5.30;2.27;;;;;;;11.56;67.68;93914.53;4930761;29;20686;-82
2022/09/28 11:50:42;;;;;;;10.53;4.63;;;;;;;12.00;69.45;93921.94;4973745;28;20350;-82
2022/09/28 11:53:32;;;;;;;5.20;2.00;;;;;;;12.14;67.76;93923.59;4946236;29;20181;-82
2022/09/28 11:56:15;;;;;;;4.80;1.90;;;;;;;12.15;67.52;93906.97;4949132;29;20193;-83